createdAt,value
2022-10-24T00:01:09.116Z,0.00
2022-10-24T00:01:48.844Z,0.00
2022-10-24T00:02:49.129Z,0.00
2022-10-24T00:03:48.844Z,0.00
2022-10-24T00:04:49.076Z,0.00
2022-10-24T00:05:48.818Z,0.00
2022-10-24T00:06:49.059Z,0.00
2022-10-24T00:07:48.806Z,0.00
2022-10-24T00:08:49.034Z,0.00
2022-10-24T00:09:48.787Z,0.00
2022-10-24T00:11:09.041Z,0.00
2022-10-24T00:11:48.796Z,0.00
2022-10-24T00:12:49.050Z,0.00
2022-10-24T00:13:48.770Z,0.00
2022-10-24T00:14:49.015Z,0.00
2022-10-24T00:15:48.765Z,0.00
2022-10-24T00:16:49.008Z,0.00
2022-10-24T00:17:48.810Z,0.00
2022-10-24T00:18:49.033Z,0.00
2022-10-24T00:19:48.765Z,0.00
2022-10-24T00:21:09.036Z,0.00
2022-10-24T00:21:48.783Z,0.00
2022-10-24T00:22:49.032Z,0.00
2022-10-24T00:23:48.767Z,0.00
2022-10-24T00:24:49.009Z,0.00
2022-10-24T00:25:48.770Z,0.00
2022-10-24T00:26:49.005Z,0.00
2022-10-24T00:27:48.755Z,0.00
2022-10-24T00:28:49.066Z,0.00
2022-10-24T00:29:48.745Z,0.00
2022-10-24T00:31:08.997Z,0.00
2022-10-24T00:31:48.742Z,0.00
2022-10-24T00:32:48.989Z,0.00
2022-10-24T00:33:48.715Z,0.00
2022-10-24T00:34:48.947Z,0.00
2022-10-24T00:35:48.701Z,0.00
2022-10-24T00:36:48.945Z,0.00
2022-10-24T00:37:48.687Z,0.00
2022-10-24T00:38:48.438Z,0.00
2022-10-24T00:39:48.670Z,0.00
2022-10-24T00:41:08.931Z,0.00
2022-10-24T00:41:48.663Z,0.00
2022-10-24T00:42:48.910Z,0.00
2022-10-24T00:43:48.664Z,0.00
2022-10-24T00:44:48.390Z,0.00
2022-10-24T00:45:48.640Z,0.00
2022-10-24T00:46:48.384Z,0.00
2022-10-24T00:47:48.635Z,0.00
2022-10-24T00:48:48.880Z,0.00
2022-10-24T00:49:48.613Z,0.00
2022-10-24T00:51:08.384Z,0.00
2022-10-24T00:51:48.608Z,0.00
2022-10-24T00:52:48.353Z,0.00
2022-10-24T00:53:48.658Z,0.00
2022-10-24T00:54:48.339Z,0.00
2022-10-24T00:55:48.566Z,0.00
2022-10-24T00:56:48.314Z,0.00
2022-10-24T00:57:48.587Z,0.00
2022-10-24T00:58:48.296Z,0.00
2022-10-24T00:59:48.536Z,0.00
2022-10-24T01:01:08.350Z,0.00
2022-10-24T01:01:48.536Z,0.00
2022-10-24T01:02:48.256Z,0.00
2022-10-24T01:03:48.494Z,0.00
2022-10-24T01:04:48.235Z,0.00
2022-10-24T01:05:48.479Z,0.00
2022-10-24T01:06:48.230Z,0.00
2022-10-24T01:07:48.468Z,0.00
2022-10-24T01:08:48.227Z,0.00
2022-10-24T01:09:48.456Z,0.00
2022-10-24T01:11:08.219Z,0.00
2022-10-24T01:11:48.450Z,0.00
2022-10-24T01:12:48.266Z,0.00
2022-10-24T01:13:48.459Z,0.00
2022-10-24T01:14:48.199Z,0.00
2022-10-24T01:15:48.449Z,0.00
2022-10-24T01:16:48.185Z,0.00
2022-10-24T01:17:48.432Z,0.00
2022-10-24T01:18:48.191Z,0.00
2022-10-24T01:19:48.434Z,0.00
2022-10-24T01:21:08.171Z,0.00
2022-10-24T01:21:48.391Z,0.00
2022-10-24T01:22:48.134Z,0.00
2022-10-24T01:23:48.381Z,0.00
2022-10-24T01:24:48.133Z,0.00
2022-10-24T01:25:48.361Z,0.00
2022-10-24T01:26:48.102Z,0.00
2022-10-24T01:27:48.331Z,0.00
2022-10-24T01:28:48.079Z,0.00
2022-10-24T01:29:48.319Z,0.00
2022-10-24T01:31:08.065Z,0.00
2022-10-24T01:31:48.303Z,0.00
2022-10-24T01:32:48.036Z,0.00
2022-10-24T01:33:48.275Z,0.00
2022-10-24T01:34:48.014Z,0.00
2022-10-24T01:35:48.236Z,0.00
2022-10-24T01:36:47.977Z,0.00
2022-10-24T01:37:48.217Z,0.00
2022-10-24T01:38:47.990Z,0.00
2022-10-24T01:39:48.227Z,0.00
2022-10-24T01:41:07.989Z,0.00
2022-10-24T01:41:48.207Z,0.00
2022-10-24T01:42:47.955Z,0.00
2022-10-24T01:43:48.227Z,0.00
2022-10-24T01:44:47.937Z,0.00
2022-10-24T01:45:48.173Z,0.00
2022-10-24T01:46:47.918Z,0.00
2022-10-24T01:47:48.152Z,0.00
2022-10-24T01:48:47.893Z,0.00
2022-10-24T01:49:48.128Z,0.00
2022-10-24T01:51:07.893Z,0.00
2022-10-24T01:51:48.124Z,0.00
2022-10-24T01:52:48.087Z,0.00
2022-10-24T01:53:48.105Z,0.00
2022-10-24T01:54:47.830Z,0.00
2022-10-24T01:55:48.079Z,0.00
2022-10-24T01:56:47.823Z,0.00
2022-10-24T01:57:48.050Z,0.00
2022-10-24T01:58:47.799Z,0.00
2022-10-24T01:59:48.048Z,0.00
2022-10-24T02:01:07.867Z,0.00
2022-10-24T02:01:48.086Z,0.00
2022-10-24T02:02:48.163Z,0.00
2022-10-24T02:03:48.032Z,0.00
2022-10-24T02:04:47.787Z,0.00
2022-10-24T02:05:48.020Z,0.00
2022-10-24T02:06:47.764Z,0.00
2022-10-24T02:07:47.514Z,0.00
2022-10-24T02:08:47.759Z,0.00
2022-10-24T02:09:47.497Z,0.00
2022-10-24T02:11:07.831Z,0.00
2022-10-24T02:11:47.606Z,0.00
2022-10-24T02:12:47.931Z,0.00
2022-10-24T02:13:47.642Z,0.00
2022-10-24T02:14:47.914Z,0.00
2022-10-24T02:15:47.704Z,0.00
2022-10-24T02:16:47.453Z,0.00
2022-10-24T02:17:47.852Z,0.00
2022-10-24T02:18:47.503Z,0.00
2022-10-24T02:19:47.762Z,0.00
2022-10-24T02:21:07.576Z,0.00
2022-10-24T02:21:47.791Z,0.00
2022-10-24T02:22:47.592Z,0.00
2022-10-24T02:23:47.853Z,0.00
2022-10-24T02:24:47.655Z,0.00
2022-10-24T02:25:47.419Z,0.00
2022-10-24T02:26:47.655Z,0.00
2022-10-24T02:27:47.609Z,0.00
2022-10-24T02:28:47.687Z,0.00
2022-10-24T02:29:47.477Z,0.00
2022-10-24T02:31:07.757Z,0.00
2022-10-24T02:31:47.526Z,0.00
2022-10-24T02:32:47.807Z,0.00
2022-10-24T02:33:47.569Z,0.00
2022-10-24T02:34:47.334Z,0.00
2022-10-24T02:35:47.649Z,0.00
2022-10-24T02:36:47.397Z,0.00
2022-10-24T02:37:47.810Z,0.00
2022-10-24T02:38:47.479Z,0.00
2022-10-24T02:39:47.288Z,0.00
2022-10-24T02:41:07.538Z,0.00
2022-10-24T02:41:47.291Z,0.00
2022-10-24T02:42:47.561Z,0.00
2022-10-24T02:43:47.370Z,0.00
2022-10-24T02:44:47.649Z,0.00
2022-10-24T02:45:47.384Z,0.00
2022-10-24T02:46:47.140Z,0.00
2022-10-24T02:47:47.614Z,0.00
2022-10-24T02:48:47.120Z,0.00
2022-10-24T02:49:47.366Z,0.00
2022-10-24T02:51:07.626Z,0.00
2022-10-24T02:51:47.370Z,0.00
2022-10-24T02:52:47.478Z,0.00
2022-10-24T02:53:47.348Z,0.00
2022-10-24T02:54:47.100Z,0.00
2022-10-24T02:55:47.351Z,0.00
2022-10-24T02:56:47.085Z,0.00
2022-10-24T02:57:47.321Z,0.00
2022-10-24T02:58:47.053Z,0.00
2022-10-24T02:59:47.297Z,0.00
2022-10-24T03:01:07.151Z,0.00
2022-10-24T03:01:47.334Z,0.00
2022-10-24T03:02:47.323Z,0.00
2022-10-24T03:03:47.295Z,0.00
2022-10-24T03:04:47.031Z,0.00
2022-10-24T03:05:47.272Z,0.00
2022-10-24T03:06:47.091Z,0.00
2022-10-24T03:07:47.259Z,0.00
2022-10-24T03:08:47.006Z,0.00
2022-10-24T03:09:47.240Z,0.00
2022-10-24T03:11:07.017Z,0.00
2022-10-24T03:11:47.238Z,0.00
2022-10-24T03:12:47.355Z,0.00
2022-10-24T03:13:48.720Z,0.00
2022-10-24T03:14:46.962Z,0.00
2022-10-24T03:16:46.952Z,0.00
2022-10-24T03:17:47.547Z,0.00
2022-10-24T03:18:46.916Z,0.00
2022-10-24T03:19:47.163Z,0.00
2022-10-24T03:21:06.918Z,0.00
2022-10-24T03:21:47.155Z,0.00
2022-10-24T03:22:46.892Z,0.00
2022-10-24T03:23:47.139Z,0.00
2022-10-24T03:24:55.172Z,0.00
2022-10-24T03:25:48.124Z,0.00
2022-10-24T03:26:46.862Z,0.00
2022-10-24T03:27:47.590Z,0.00
2022-10-24T03:28:46.846Z,0.00
2022-10-24T03:29:47.097Z,0.00
2022-10-24T03:31:06.855Z,0.00
2022-10-24T03:31:47.075Z,0.00
2022-10-24T03:32:47.289Z,0.00
2022-10-24T03:33:47.068Z,0.00
2022-10-24T03:34:46.827Z,0.00
2022-10-24T03:35:47.059Z,0.00
2022-10-24T03:36:46.814Z,0.00
2022-10-24T03:37:47.050Z,0.00
2022-10-24T03:38:46.801Z,0.00
2022-10-24T03:39:47.051Z,0.00
2022-10-24T03:41:06.816Z,0.00
2022-10-24T03:41:47.033Z,0.00
2022-10-24T03:42:47.139Z,0.00
2022-10-24T03:43:47.023Z,0.00
2022-10-24T03:44:46.764Z,0.00
2022-10-24T03:45:46.515Z,0.00
2022-10-24T03:46:46.753Z,0.00
2022-10-24T03:47:46.508Z,0.00
2022-10-24T03:48:46.730Z,0.00
2022-10-24T03:49:46.497Z,0.00
2022-10-24T03:51:07.710Z,0.00
2022-10-24T03:51:46.491Z,0.00
2022-10-24T03:52:47.090Z,0.00
2022-10-24T03:53:46.476Z,0.00
2022-10-24T03:54:46.749Z,0.00
2022-10-24T03:55:47.988Z,0.00
2022-10-24T03:56:46.804Z,0.00
2022-10-24T03:57:46.826Z,0.00
2022-10-24T03:58:46.815Z,0.00
2022-10-24T03:59:46.546Z,0.00
2022-10-24T04:01:06.842Z,0.00
2022-10-24T04:01:46.581Z,0.00
2022-10-24T04:02:46.788Z,0.00
2022-10-24T04:03:46.536Z,0.00
2022-10-24T04:04:46.779Z,0.00
2022-10-24T04:05:46.527Z,0.00
2022-10-24T04:06:46.759Z,0.00
2022-10-24T04:07:46.924Z,0.00
2022-10-24T04:08:46.770Z,0.00
2022-10-24T04:09:46.507Z,0.00
2022-10-24T04:11:06.768Z,0.00
2022-10-24T04:11:46.526Z,0.00
2022-10-24T04:12:46.261Z,0.00
2022-10-24T04:13:46.511Z,0.00
2022-10-24T04:14:46.259Z,0.00
2022-10-24T04:15:46.505Z,0.00
2022-10-24T04:16:46.252Z,0.00
2022-10-24T04:17:46.875Z,0.00
2022-10-24T04:18:46.237Z,0.00
2022-10-24T04:19:46.481Z,0.00
2022-10-24T04:21:06.234Z,0.00
2022-10-24T04:21:46.479Z,0.00
2022-10-24T04:22:46.387Z,0.00
2022-10-24T04:23:46.461Z,0.00
2022-10-24T04:24:46.232Z,0.00
2022-10-24T04:25:46.479Z,0.00
2022-10-24T04:26:46.664Z,0.00
2022-10-24T04:27:46.494Z,0.00
2022-10-24T04:28:48.209Z,0.00
2022-10-24T04:29:46.485Z,0.00
2022-10-24T04:31:06.275Z,0.00
2022-10-24T04:31:46.494Z,0.00
2022-10-24T04:32:46.706Z,0.00
2022-10-24T04:33:47.665Z,0.00
2022-10-24T04:34:46.335Z,0.00
2022-10-24T04:35:46.089Z,0.00
2022-10-24T04:36:46.330Z,0.00
2022-10-24T04:37:46.071Z,0.00
2022-10-24T04:38:46.314Z,0.00
2022-10-24T04:39:46.062Z,0.00
2022-10-24T04:41:09.857Z,0.00
2022-10-24T04:41:47.093Z,0.00
2022-10-24T04:42:46.601Z,0.00
2022-10-24T04:43:46.098Z,0.00
2022-10-24T04:44:46.350Z,0.00
2022-10-24T04:45:46.078Z,0.00
2022-10-24T04:46:50.589Z,0.00
2022-10-24T04:47:47.225Z,0.00
2022-10-24T04:48:46.324Z,0.00
2022-10-24T04:49:46.059Z,0.00
2022-10-24T04:51:07.812Z,0.00
2022-10-24T04:51:46.101Z,0.00
2022-10-24T04:52:45.363Z,0.00
2022-10-24T04:53:45.298Z,0.00
2022-10-24T04:54:45.302Z,0.00
2022-10-24T04:55:45.286Z,0.00
2022-10-24T04:56:45.302Z,0.00
2022-10-24T04:57:45.596Z,0.00
2022-10-24T04:58:45.337Z,0.00
2022-10-24T04:59:45.245Z,0.00
2022-10-24T05:01:06.332Z,0.00
2022-10-24T05:01:45.344Z,0.00
2022-10-24T05:02:45.339Z,0.00
2022-10-24T05:03:45.215Z,0.00
2022-10-24T05:04:45.243Z,0.00
2022-10-24T05:05:46.001Z,0.00
2022-10-24T05:06:45.299Z,0.00
2022-10-24T05:07:46.233Z,0.00
2022-10-24T05:08:45.676Z,0.00
2022-10-24T05:09:45.951Z,0.00
2022-10-24T05:11:06.455Z,0.00
2022-10-24T05:11:46.036Z,0.00
2022-10-24T05:12:45.995Z,0.00
2022-10-24T05:13:46.061Z,0.00
2022-10-24T05:14:45.773Z,0.00
2022-10-24T05:15:46.023Z,0.00
2022-10-24T05:16:45.959Z,0.00
2022-10-24T05:17:46.029Z,0.00
2022-10-24T05:18:45.797Z,0.00
2022-10-24T05:19:45.561Z,0.00
2022-10-24T05:21:06.792Z,0.00
2022-10-24T05:21:45.589Z,0.00
2022-10-24T05:22:47.933Z,0.00
2022-10-24T05:23:45.624Z,0.00
2022-10-24T05:24:45.831Z,0.00
2022-10-24T05:25:45.580Z,0.00
2022-10-24T05:26:46.763Z,0.00
2022-10-24T05:27:45.585Z,0.00
2022-10-24T05:28:52.407Z,0.00
2022-10-24T05:29:46.986Z,0.00
2022-10-24T05:31:06.824Z,0.00
2022-10-24T05:31:45.611Z,0.00
2022-10-24T05:32:46.188Z,0.00
2022-10-24T05:33:45.607Z,0.00
2022-10-24T05:34:46.462Z,0.00
2022-10-24T05:35:45.664Z,0.00
2022-10-24T05:36:45.411Z,0.00
2022-10-24T05:37:45.688Z,0.00
2022-10-24T05:38:45.413Z,0.00
2022-10-24T05:39:45.645Z,0.00
2022-10-24T05:41:06.466Z,0.00
2022-10-24T05:41:47.111Z,0.00
2022-10-24T05:42:46.870Z,0.00
2022-10-24T05:43:45.667Z,0.00
2022-10-24T05:44:45.455Z,0.00
2022-10-24T05:45:45.734Z,0.00
2022-10-24T05:46:45.427Z,0.00
2022-10-24T05:47:46.073Z,0.00
2022-10-24T05:48:45.447Z,0.00
2022-10-24T05:49:45.671Z,0.00
2022-10-24T05:51:06.458Z,0.00
2022-10-24T05:51:45.259Z,0.00
2022-10-24T05:52:47.188Z,0.00
2022-10-24T05:53:45.238Z,0.00
2022-10-24T05:55:02.353Z,0.00
2022-10-24T05:55:46.229Z,0.00
2022-10-24T05:56:45.500Z,0.00
2022-10-24T05:57:45.568Z,0.00
2022-10-24T05:58:45.479Z,0.00
2022-10-24T05:59:45.239Z,0.00
2022-10-24T06:01:07.108Z,0.00
2022-10-24T06:01:45.418Z,0.00
2022-10-24T06:03:45.323Z,0.00
2022-10-24T06:04:45.561Z,0.00
2022-10-24T06:05:45.295Z,0.00
2022-10-24T06:06:45.534Z,0.00
2022-10-24T06:07:45.587Z,0.00
2022-10-24T06:08:45.054Z,0.00
2022-10-24T06:09:45.293Z,0.00
2022-10-24T06:11:05.903Z,0.00
2022-10-24T06:11:45.343Z,0.00
2022-10-24T06:12:45.430Z,0.00
2022-10-24T06:13:45.340Z,0.00
2022-10-24T06:14:45.065Z,0.00
2022-10-24T06:15:46.338Z,0.00
2022-10-24T06:16:46.663Z,0.00
2022-10-24T06:17:45.516Z,0.00
2022-10-24T06:18:46.686Z,0.00
2022-10-24T06:19:46.485Z,0.00
2022-10-24T06:21:05.315Z,5.62
2022-10-24T06:21:46.528Z,5.62
2022-10-24T06:22:45.930Z,5.62
2022-10-24T06:23:45.221Z,5.62
2022-10-24T06:24:44.986Z,5.62
2022-10-24T06:25:45.948Z,5.62
2022-10-24T06:26:45.119Z,5.62
2022-10-24T06:27:46.781Z,5.62
2022-10-24T06:28:45.165Z,5.62
2022-10-24T06:29:45.249Z,5.62
2022-10-24T06:31:05.202Z,5.62
2022-10-24T06:31:46.399Z,5.62
2022-10-24T06:32:46.331Z,5.62
2022-10-24T06:33:45.093Z,5.62
2022-10-24T06:34:46.288Z,11.25
2022-10-24T06:35:46.573Z,11.25
2022-10-24T06:36:45.050Z,11.25
2022-10-24T06:37:47.971Z,11.25
2022-10-24T06:38:45.462Z,11.25
2022-10-24T06:39:46.302Z,11.25
2022-10-24T06:41:05.130Z,11.25
2022-10-24T06:41:44.940Z,5.62
2022-10-24T06:42:46.611Z,5.62
2022-10-24T06:43:46.428Z,5.62
2022-10-24T06:44:45.099Z,11.25
2022-10-24T06:45:46.569Z,11.25
2022-10-24T06:46:46.379Z,16.88
2022-10-24T06:47:48.461Z,22.50
2022-10-24T06:48:46.480Z,22.50
2022-10-24T06:49:46.261Z,28.12
2022-10-24T06:51:05.103Z,28.12
2022-10-24T06:51:46.367Z,28.12
2022-10-24T06:52:45.664Z,28.12
2022-10-24T06:53:46.494Z,28.12
2022-10-24T06:54:46.261Z,22.50
2022-10-24T06:55:44.666Z,22.50
2022-10-24T06:56:45.476Z,28.12
2022-10-24T06:57:46.584Z,28.12
2022-10-24T06:58:45.008Z,22.50
2022-10-24T06:59:45.787Z,16.88
2022-10-24T07:01:04.705Z,11.25
2022-10-24T07:01:46.466Z,11.25
2022-10-24T07:02:45.827Z,11.25
2022-10-24T07:03:46.446Z,11.25
2022-10-24T07:04:44.801Z,16.88
2022-10-24T07:05:46.008Z,16.88
2022-10-24T07:06:46.285Z,16.88
2022-10-24T07:07:45.054Z,22.50
2022-10-24T07:08:44.979Z,33.75
2022-10-24T07:09:46.246Z,45.00
2022-10-24T07:11:04.562Z,56.25
2022-10-24T07:11:46.280Z,56.25
2022-10-24T07:12:44.969Z,78.75
2022-10-24T07:13:46.329Z,67.50
2022-10-24T07:14:44.702Z,61.88
2022-10-24T07:15:45.984Z,67.50
2022-10-24T07:16:44.826Z,67.50
2022-10-24T07:17:46.043Z,61.88
2022-10-24T07:18:44.443Z,61.88
2022-10-24T07:19:46.162Z,61.88
2022-10-24T07:21:04.476Z,67.50
2022-10-24T07:21:45.685Z,78.75
2022-10-24T07:22:45.886Z,73.12
2022-10-24T07:23:44.383Z,90.00
2022-10-24T07:24:45.585Z,90.00
2022-10-24T07:25:45.927Z,95.62
2022-10-24T07:26:44.803Z,101.25
2022-10-24T07:27:45.996Z,84.38
2022-10-24T07:28:45.785Z,61.88
2022-10-24T07:29:46.073Z,50.62
2022-10-24T07:31:04.377Z,22.50
2022-10-24T07:31:44.996Z,22.50
2022-10-24T07:32:46.218Z,22.50
2022-10-24T07:33:44.907Z,22.50
2022-10-24T07:34:45.963Z,28.12
2022-10-24T07:35:45.766Z,28.12
2022-10-24T07:36:45.611Z,22.50
2022-10-24T07:37:45.215Z,16.88
2022-10-24T07:38:45.689Z,22.50
2022-10-24T07:39:45.494Z,33.75
2022-10-24T07:41:04.311Z,28.12
2022-10-24T07:41:46.014Z,22.50
2022-10-24T07:42:44.625Z,22.50
2022-10-24T07:43:44.163Z,22.50
2022-10-24T07:44:45.857Z,28.12
2022-10-24T07:45:49.106Z,33.75
2022-10-24T07:46:46.997Z,45.00
2022-10-24T07:47:46.006Z,73.12
2022-10-24T07:48:44.810Z,112.50
2022-10-24T07:49:45.391Z,95.62
2022-10-24T07:51:04.203Z,73.12
2022-10-24T07:51:45.917Z,163.12
2022-10-24T07:52:45.708Z,399.38
2022-10-24T07:53:45.513Z,354.38
2022-10-24T07:54:44.404Z,196.88
2022-10-24T07:55:45.099Z,180.00
2022-10-24T07:56:45.908Z,174.38
2022-10-24T07:57:46.056Z,106.88
2022-10-24T07:58:44.087Z,135.00
2022-10-24T07:59:45.782Z,123.75
2022-10-24T08:01:04.179Z,129.38
2022-10-24T08:01:45.873Z,157.50
2022-10-24T08:03:44.654Z,123.75
2022-10-24T08:04:44.293Z,106.88
2022-10-24T08:05:45.026Z,129.38
2022-10-24T08:06:45.030Z,168.75
2022-10-24T08:07:55.728Z,123.75
2022-10-24T08:08:46.408Z,123.75
2022-10-24T08:09:47.705Z,123.75
2022-10-24T08:11:04.018Z,90.00
2022-10-24T08:11:44.529Z,95.62
2022-10-24T08:12:44.866Z,101.25
2022-10-24T08:13:45.384Z,129.38
2022-10-24T08:14:45.678Z,135.00
2022-10-24T08:15:44.031Z,123.75
2022-10-24T08:16:44.722Z,118.12
2022-10-24T08:17:44.195Z,174.38
2022-10-24T08:18:44.552Z,140.62
2022-10-24T08:19:45.200Z,123.75
2022-10-24T08:21:04.029Z,163.12
2022-10-24T08:21:45.224Z,112.50
2022-10-24T08:22:44.493Z,78.75
2022-10-24T08:23:43.885Z,163.12
2022-10-24T08:24:44.540Z,50.62
2022-10-24T08:25:44.014Z,56.25
2022-10-24T08:26:43.789Z,56.25
2022-10-24T08:27:45.501Z,45.00
2022-10-24T08:28:43.923Z,67.50
2022-10-24T08:29:43.675Z,73.12
2022-10-24T08:31:03.921Z,67.50
2022-10-24T08:31:45.123Z,67.50
2022-10-24T08:32:44.402Z,61.88
2022-10-24T08:33:45.245Z,84.38
2022-10-24T08:34:44.517Z,56.25
2022-10-24T08:35:43.904Z,50.62
2022-10-24T08:36:45.125Z,50.62
2022-10-24T08:37:45.398Z,45.00
2022-10-24T08:38:45.156Z,39.38
2022-10-24T08:39:44.681Z,45.00
2022-10-24T08:41:04.047Z,45.00
2022-10-24T08:41:44.596Z,50.62
2022-10-24T08:42:45.588Z,56.25
2022-10-24T08:43:44.641Z,67.50
2022-10-24T08:44:45.478Z,50.62
2022-10-24T08:45:45.269Z,45.00
2022-10-24T08:46:43.647Z,33.75
2022-10-24T08:47:44.548Z,33.75
2022-10-24T08:48:45.119Z,22.50
2022-10-24T08:49:46.517Z,22.50
2022-10-24T08:51:04.791Z,22.50
2022-10-24T08:51:44.991Z,22.50
2022-10-24T08:52:45.643Z,22.50
2022-10-24T08:53:45.080Z,22.50
2022-10-24T08:54:44.108Z,22.50
2022-10-24T08:55:49.376Z,28.12
2022-10-24T08:56:44.763Z,33.75
2022-10-24T08:57:45.239Z,33.75
2022-10-24T08:58:44.053Z,45.00
2022-10-24T08:59:44.837Z,45.00
2022-10-24T09:01:03.795Z,56.25
2022-10-24T09:01:43.547Z,61.88
2022-10-24T09:02:45.554Z,50.62
2022-10-24T09:03:55.551Z,45.00
2022-10-24T09:04:45.059Z,56.25
2022-10-24T09:05:43.646Z,61.88
2022-10-24T09:06:44.323Z,61.88
2022-10-24T09:07:45.326Z,78.75
2022-10-24T09:08:43.455Z,118.12
2022-10-24T09:09:45.185Z,157.50
2022-10-24T09:11:03.496Z,106.88
2022-10-24T09:11:43.343Z,90.00
2022-10-24T09:12:44.982Z,73.12
2022-10-24T09:13:44.265Z,50.62
2022-10-24T09:14:45.056Z,84.38
2022-10-24T09:15:44.830Z,129.38
2022-10-24T09:16:44.077Z,219.38
2022-10-24T09:17:45.253Z,135.00
2022-10-24T09:18:44.677Z,118.12
2022-10-24T09:19:44.978Z,84.38
2022-10-24T09:21:03.309Z,84.38
2022-10-24T09:21:45.012Z,73.12
2022-10-24T09:22:44.395Z,73.12
2022-10-24T09:23:43.175Z,78.75
2022-10-24T09:24:44.885Z,95.62
2022-10-24T09:25:44.731Z,123.75
2022-10-24T09:26:44.472Z,112.50
2022-10-24T09:27:44.402Z,90.00
2022-10-24T09:28:44.557Z,78.75
2022-10-24T09:29:43.405Z,84.38
2022-10-24T09:31:03.135Z,67.50
2022-10-24T09:31:44.824Z,90.00
2022-10-24T09:32:44.101Z,135.00
2022-10-24T09:33:44.093Z,191.25
2022-10-24T09:34:43.318Z,219.38
2022-10-24T09:35:43.922Z,191.25
2022-10-24T09:36:43.348Z,146.25
2022-10-24T09:37:47.380Z,101.25
2022-10-24T09:38:44.850Z,112.50
2022-10-24T09:39:43.591Z,78.75
2022-10-24T09:41:03.006Z,106.88
2022-10-24T09:41:44.214Z,78.75
2022-10-24T09:42:44.465Z,61.88
2022-10-24T09:43:44.762Z,61.88
2022-10-24T09:44:44.525Z,73.12
2022-10-24T09:45:43.789Z,61.88
2022-10-24T09:46:43.588Z,56.25
2022-10-24T09:47:44.644Z,61.88
2022-10-24T09:48:44.636Z,78.75
2022-10-24T09:49:43.039Z,78.75
2022-10-24T09:51:03.264Z,78.75
2022-10-24T09:51:43.711Z,73.12
2022-10-24T09:52:43.578Z,123.75
2022-10-24T09:53:44.561Z,163.12
2022-10-24T09:54:43.838Z,264.38
2022-10-24T09:56:29.643Z,1552.50
2022-10-24T09:56:42.918Z,275.62
2022-10-24T09:57:45.024Z,1018.12
2022-10-24T09:58:43.592Z,534.38
2022-10-24T09:59:44.207Z,151.88
2022-10-24T10:01:03.115Z,202.50
2022-10-24T10:01:44.339Z,225.00
2022-10-24T10:02:44.500Z,168.75
2022-10-24T10:03:43.771Z,135.00
2022-10-24T10:04:43.590Z,191.25
2022-10-24T10:05:43.033Z,281.25
2022-10-24T10:06:42.700Z,315.00
2022-10-24T10:07:44.900Z,388.12
2022-10-24T10:08:43.729Z,168.75
2022-10-24T10:09:43.205Z,129.38
2022-10-24T10:11:02.840Z,315.00
2022-10-24T10:11:49.276Z,1125.00
2022-10-24T10:12:43.938Z,416.25
2022-10-24T10:13:44.106Z,286.88
2022-10-24T10:14:42.962Z,270.00
2022-10-24T10:15:44.144Z,191.25
2022-10-24T10:16:43.095Z,230.62
2022-10-24T10:17:43.955Z,348.75
2022-10-24T10:18:44.656Z,1552.50
2022-10-24T10:20:02.326Z,1321.88
2022-10-24T10:21:02.597Z,787.50
2022-10-24T10:21:42.941Z,303.75
2022-10-24T10:22:44.138Z,202.50
2022-10-24T10:23:43.158Z,253.12
2022-10-24T10:24:44.189Z,877.50
2022-10-24T10:25:43.965Z,421.88
2022-10-24T10:26:44.257Z,264.38
2022-10-24T10:27:42.928Z,354.38
2022-10-24T10:28:43.120Z,326.25
2022-10-24T10:29:44.122Z,956.25
2022-10-24T10:31:02.467Z,405.00
2022-10-24T10:31:44.168Z,258.75
2022-10-24T10:32:43.923Z,174.38
2022-10-24T10:33:43.172Z,151.88
2022-10-24T10:34:42.706Z,140.62
2022-10-24T10:35:42.370Z,213.75
2022-10-24T10:36:43.306Z,185.62
2022-10-24T10:37:42.724Z,123.75
2022-10-24T10:38:42.793Z,112.50
2022-10-24T10:39:45.174Z,95.62
2022-10-24T10:41:02.786Z,112.50
2022-10-24T10:41:44.027Z,106.88
2022-10-24T10:42:43.546Z,95.62
2022-10-24T10:43:42.716Z,118.12
2022-10-24T10:44:43.126Z,84.38
2022-10-24T10:45:42.752Z,101.25
2022-10-24T10:46:42.416Z,118.12
2022-10-24T10:47:42.695Z,106.88
2022-10-24T10:48:42.442Z,146.25
2022-10-24T10:49:42.179Z,168.75
2022-10-24T10:51:05.807Z,382.50
2022-10-24T10:51:43.169Z,528.75
2022-10-24T10:52:42.707Z,270.00
2022-10-24T10:53:42.159Z,455.62
2022-10-24T10:54:42.432Z,303.75
2022-10-24T10:55:42.166Z,663.75
2022-10-24T10:56:42.419Z,1254.38
2022-10-24T10:57:42.162Z,523.12
2022-10-24T10:58:42.416Z,798.75
2022-10-24T11:00:02.681Z,1546.88
2022-10-24T11:02:14.311Z,1653.75
2022-10-24T11:02:20.794Z,1631.25
2022-10-24T11:04:36.412Z,1473.75
2022-10-24T11:04:41.418Z,590.62
2022-10-24T11:05:43.465Z,326.25
2022-10-24T11:07:22.503Z,1220.62
2022-10-24T11:07:43.287Z,2098.12
2022-10-24T11:08:42.851Z,1681.88
2022-10-24T11:09:54.130Z,1563.75
2022-10-24T11:10:43.860Z,1575.00
2022-10-24T11:12:03.610Z,466.88
2022-10-24T11:12:42.650Z,461.25
2022-10-24T11:13:42.665Z,225.00
2022-10-24T11:14:42.447Z,315.00
2022-10-24T11:15:42.732Z,185.62
2022-10-24T11:16:42.472Z,163.12
2022-10-24T11:17:42.795Z,646.88
2022-10-24T11:18:43.078Z,286.88
2022-10-24T11:19:43.356Z,191.25
2022-10-24T11:20:43.118Z,191.25
2022-10-24T11:22:02.929Z,163.12
2022-10-24T11:22:42.062Z,185.62
2022-10-24T11:24:42.798Z,669.38
2022-10-24T11:25:42.576Z,348.75
2022-10-24T11:26:43.366Z,517.50
2022-10-24T11:27:42.754Z,213.75
2022-10-24T11:28:42.153Z,461.25
2022-10-24T11:29:42.452Z,556.88
2022-10-24T11:30:42.508Z,590.62
2022-10-24T11:32:42.807Z,253.12
2022-10-24T11:33:43.362Z,309.38
2022-10-24T11:34:42.159Z,495.00
2022-10-24T11:35:45.465Z,1524.38
2022-10-24T11:36:43.178Z,641.25
2022-10-24T11:37:42.955Z,241.88
2022-10-24T11:38:41.757Z,180.00
2022-10-24T11:40:22.625Z,894.38
2022-10-24T11:44:48.780Z,1721.25
2022-10-24T11:45:19.545Z,1968.75
2022-10-24T11:45:57.759Z,2030.62
2022-10-24T11:47:06.322Z,2098.12
2022-10-24T11:47:54.272Z,1839.38
2022-10-24T11:48:55.043Z,1923.75
2022-10-24T11:50:27.773Z,2030.62
2022-10-24T11:50:56.020Z,2013.75
2022-10-24T11:51:57.776Z,1828.12
2022-10-24T11:52:57.024Z,1254.38
2022-10-24T11:53:54.292Z,973.12
2022-10-24T11:55:15.543Z,360.00
2022-10-24T11:55:54.319Z,247.50
2022-10-24T11:56:54.086Z,298.12
2022-10-24T11:57:54.335Z,202.50
2022-10-24T11:58:54.072Z,213.75
2022-10-24T11:59:54.318Z,286.88
2022-10-24T12:00:54.064Z,804.38
2022-10-24T12:01:54.301Z,1192.50
2022-10-24T12:02:54.135Z,528.75
2022-10-24T12:03:54.295Z,180.00
2022-10-24T12:05:19.534Z,112.50
2022-10-24T12:05:54.316Z,78.75
2022-10-24T12:06:54.060Z,56.25
2022-10-24T12:07:54.336Z,45.00
2022-10-24T12:08:54.076Z,39.38
2022-10-24T12:09:54.330Z,39.38
2022-10-24T12:10:54.089Z,39.38
2022-10-24T12:11:53.850Z,45.00
2022-10-24T12:12:54.079Z,50.62
2022-10-24T12:13:55.299Z,67.50
2022-10-24T12:15:14.713Z,78.75
2022-10-24T12:15:53.891Z,67.50
2022-10-24T12:16:54.160Z,67.50
2022-10-24T12:17:53.898Z,84.38
2022-10-24T12:18:54.136Z,973.12
2022-10-24T12:19:53.894Z,213.75
2022-10-24T12:20:54.124Z,360.00
2022-10-24T12:21:53.868Z,185.62
2022-10-24T12:22:55.063Z,157.50
2022-10-24T12:23:53.864Z,101.25
2022-10-24T12:25:15.617Z,61.88
2022-10-24T12:25:53.904Z,45.00
2022-10-24T12:26:53.674Z,39.38
2022-10-24T12:27:53.942Z,45.00
2022-10-24T12:28:53.703Z,39.38
2022-10-24T12:29:53.930Z,45.00
2022-10-24T12:31:53.918Z,45.00
2022-10-24T12:32:53.678Z,39.38
2022-10-24T12:33:53.902Z,73.12
2022-10-24T12:35:31.051Z,163.12
2022-10-24T12:35:54.048Z,168.75
2022-10-24T12:36:53.790Z,146.25
2022-10-24T12:37:54.026Z,151.88
2022-10-24T12:38:53.773Z,213.75
2022-10-24T12:39:57.653Z,225.00
2022-10-24T12:40:54.759Z,202.50
2022-10-24T12:41:53.530Z,225.00
2022-10-24T12:42:53.764Z,185.62
2022-10-24T12:43:53.996Z,168.75
2022-10-24T12:45:14.757Z,163.12
2022-10-24T12:45:53.610Z,168.75
2022-10-24T12:46:53.794Z,191.25
2022-10-24T12:47:53.554Z,191.25
2022-10-24T12:48:53.914Z,146.25
2022-10-24T12:49:53.678Z,140.62
2022-10-24T12:50:53.814Z,151.88
2022-10-24T12:51:53.570Z,168.75
2022-10-24T12:52:53.825Z,135.00
2022-10-24T12:53:53.567Z,146.25
2022-10-24T12:55:14.238Z,157.50
2022-10-24T12:55:53.686Z,146.25
2022-10-24T12:56:53.406Z,157.50
2022-10-24T12:57:53.640Z,151.88
2022-10-24T12:58:54.826Z,123.75
2022-10-24T12:59:53.682Z,106.88
2022-10-24T13:00:53.389Z,118.12
2022-10-24T13:01:53.735Z,118.12
2022-10-24T13:02:53.441Z,106.88
2022-10-24T13:03:53.648Z,101.25
2022-10-24T13:05:14.910Z,95.62
2022-10-24T13:05:53.689Z,101.25
2022-10-24T13:06:53.459Z,101.25
2022-10-24T13:07:54.251Z,112.50